Time;durP1;ratioP1;P1;durP2;ratioP2;P2;SDS_P1;SDS_P2;PMS_P1;PMS_P2;Temp;Humidity;BMP_temperature;BMP_pressure;BME280_temperature;BME280_humidity;BME280_pressure;Samples;Min_cycle;Max_cycle;Signal;HPM_P1;HPM_P2
2022/07/22 00:01:51;;;;;;;8.73;2.70;;;;;;;;;;4877507;29;20052;-77
2022/07/22 00:04:16;;;;;;;3.75;2.65;;;;;;;;;;4877345;29;20187;-76
2022/07/22 00:06:42;;;;;;;2.97;2.75;;;;;;;;;;4877588;29;20041;-76
2022/07/22 00:09:08;;;;;;;2.70;2.50;;;;;;;;;;4877454;29;20135;-76
2022/07/22 00:11:34;;;;;;;3.38;2.50;;;;;;;;;;4878431;29;20395;-77
2022/07/22 00:14:01;;;;;;;3.65;2.60;;;;;;;;;;4882778;29;20057;-76
2022/07/22 00:16:26;;;;;;;3.63;2.53;;;;;;;;;;4868124;29;20059;-77
2022/07/22 00:18:52;;;;;;;5.05;2.75;;;;;;;;;;4860934;29;20526;-76
2022/07/22 00:21:18;;;;;;;4.93;2.72;;;;;;;;;;4877090;29;20048;-76
2022/07/22 00:23:44;;;;;;;3.38;2.45;;;;;;;;;;4877078;29;20057;-76
2022/07/22 00:26:10;;;;;;;2.85;2.35;;;;;;;;;;4876942;29;20542;-76
2022/07/22 00:28:36;;;;;;;2.25;2.15;;;;;;;;;;4876934;29;20421;-77
2022/07/22 00:31:02;;;;;;;3.05;2.28;;;;;;;;;;4860090;29;20048;-76
2022/07/22 00:33:28;;;;;;;4.15;2.35;;;;;;;;;;4877148;29;20045;-77
2022/07/22 00:35:54;;;;;;;2.38;2.28;;;;;;;;;;4860224;29;20480;-77
2022/07/22 00:38:20;;;;;;;3.97;2.40;;;;;;;;;;4859983;29;20061;-76
2022/07/22 00:40:45;;;;;;;4.97;2.38;;;;;;;;;;4877047;29;20056;-77
2022/07/22 00:43:11;;;;;;;6.07;2.92;;;;;;;;;;4859647;29;20072;-76
2022/07/22 00:45:37;;;;;;;2.30;2.20;;;;;;;;;;4860172;29;20041;-77
2022/07/22 00:48:04;;;;;;;3.63;2.65;;;;;;;;;;4876576;29;20057;-76
2022/07/22 00:50:30;;;;;;;3.15;2.40;;;;;;;;;;4876044;29;20045;-75
2022/07/22 00:52:55;;;;;;;2.58;2.38;;;;;;;;;;4859848;29;20423;-76
2022/07/22 00:55:21;;;;;;;2.92;2.53;;;;;;;;;;4859996;29;20136;-77
2022/07/22 00:57:47;;;;;;;5.63;2.40;;;;;;;;;;4876421;29;20052;-76
2022/07/22 01:00:14;;;;;;;2.70;2.50;;;;;;;;;;4876352;29;20070;-77
2022/07/22 01:02:40;;;;;;;3.35;2.40;;;;;;;;;;4859985;29;20131;-77
2022/07/22 01:05:06;;;;;;;2.67;2.47;;;;;;;;;;4859579;29;20217;-74
2022/07/22 01:07:33;;;;;;;2.55;2.33;;;;;;;;;;4859740;29;20053;-77
2022/07/22 01:09:58;;;;;;;3.72;2.28;;;;;;;;;;4876581;29;20529;-76
2022/07/22 01:12:24;;;;;;;3.30;2.50;;;;;;;;;;4876544;29;20549;-75
2022/07/22 01:14:50;;;;;;;2.60;2.50;;;;;;;;;;4876306;29;20049;-76
2022/07/22 01:17:16;;;;;;;2.90;2.58;;;;;;;;;;4876002;29;20152;-76
2022/07/22 01:19:42;;;;;;;3.90;2.60;;;;;;;;;;4859698;29;20537;-76
2022/07/22 01:22:08;;;;;;;2.70;2.50;;;;;;;;;;4844049;29;20537;-75
2022/07/22 01:24:34;;;;;;;6.82;2.47;;;;;;;;;;4859755;29;20048;-76
2022/07/22 01:27:00;;;;;;;2.85;2.55;;;;;;;;;;4876122;29;20045;-76
2022/07/22 01:29:26;;;;;;;3.60;2.40;;;;;;;;;;4876379;29;20061;-75
2022/07/22 01:31:52;;;;;;;2.65;2.15;;;;;;;;;;4876282;29;20132;-75
2022/07/22 01:34:18;;;;;;;2.80;2.40;;;;;;;;;;4875966;29;20071;-77
2022/07/22 01:36:44;;;;;;;4.63;2.58;;;;;;;;;;4859834;29;20530;-76
2022/07/22 01:39:09;;;;;;;4.60;2.50;;;;;;;;;;4859843;29;20120;-77
2022/07/22 01:41:35;;;;;;;3.25;2.47;;;;;;;;;;4876536;29;20087;-75
2022/07/22 01:44:02;;;;;;;5.57;2.70;;;;;;;;;;4859165;29;20049;-76
2022/07/22 01:46:28;;;;;;;3.08;2.88;;;;;;;;;;4859607;29;20097;-75
2022/07/22 01:48:53;;;;;;;3.00;2.80;;;;;;;;;;4859586;29;20070;-76
2022/07/22 01:51:20;;;;;;;2.83;2.63;;;;;;;;;;4828861;29;20136;-75
2022/07/22 01:53:46;;;;;;;4.75;2.70;;;;;;;;;;4863826;29;20049;-77
2022/07/22 01:56:11;;;;;;;3.00;2.80;;;;;;;;;;4861715;29;20072;-76
2022/07/22 01:58:45;;;;;;;3.40;2.45;;;;;;;;;;4845280;29;20061;-77
2022/07/22 02:01:13;;;;;;;2.70;2.42;;;;;;;;;;4859369;29;20212;-77
2022/07/22 02:03:39;;;;;;;2.55;2.42;;;;;;;;;;4873913;29;20045;-76
2022/07/22 02:06:08;;;;;;;3.13;2.83;;;;;;;;;;4869679;29;20049;-77
2022/07/22 02:08:34;;;;;;;3.90;2.80;;;;;;;;;;4863600;29;20049;-75
2022/07/22 02:11:21;;;;;;;2.95;2.60;;;;;;;;;;4850039;29;20044;-77
2022/07/22 02:13:56;;;;;;;2.83;2.63;;;;;;;;;;4850633;29;20045;-76
2022/07/22 02:16:23;;;;;;;3.00;2.80;;;;;;;;;;4859827;29;20041;-77
2022/07/22 02:18:50;;;;;;;2.95;2.85;;;;;;;;;;4860873;29;20136;-76
2022/07/22 02:21:16;;;;;;;2.67;2.58;;;;;;;;;;4865331;29;20124;-77
2022/07/22 02:23:42;;;;;;;3.40;3.10;;;;;;;;;;4863321;29;20135;-76
2022/07/22 02:26:08;;;;;;;4.03;3.72;;;;;;;;;;4879547;29;20053;-75
2022/07/22 02:28:35;;;;;;;3.58;3.10;;;;;;;;;;4862829;29;20057;-76
2022/07/22 02:31:01;;;;;;;6.93;3.30;;;;;;;;;;4862682;29;20528;-76
2022/07/22 02:33:29;;;;;;;3.20;3.00;;;;;;;;;;4862320;29;20049;-76
2022/07/22 02:35:56;;;;;;;3.03;2.80;;;;;;;;;;4862595;29;20048;-77
2022/07/22 02:38:22;;;;;;;3.00;2.80;;;;;;;;;;4862295;29;20430;-76
2022/07/22 02:40:49;;;;;;;2.60;2.50;;;;;;;;;;4862623;29;20041;-77
2022/07/22 02:43:15;;;;;;;2.83;2.60;;;;;;;;;;4878908;29;20049;-77
2022/07/22 02:45:40;;;;;;;5.07;2.58;;;;;;;;;;4847126;29;20093;-76
2022/07/22 02:48:06;;;;;;;2.65;2.42;;;;;;;;;;4878754;29;20037;-76
2022/07/22 02:50:34;;;;;;;2.80;2.55;;;;;;;;;;4847334;29;20047;-76
2022/07/22 02:53:01;;;;;;;3.38;2.50;;;;;;;;;;4847090;29;20073;-77
2022/07/22 02:55:31;;;;;;;2.70;2.50;;;;;;;;;;4862463;29;20518;-76
2022/07/22 02:58:03;;;;;;;2.75;2.40;;;;;;;;;;4862172;29;20081;-77
2022/07/22 03:00:30;;;;;;;2.83;2.63;;;;;;;;;;4862146;29;20060;-77
2022/07/22 03:02:56;;;;;;;2.95;2.75;;;;;;;;;;4862322;29;20315;-76
2022/07/22 03:05:22;;;;;;;3.47;2.15;;;;;;;;;;4879246;29;20571;-77
2022/07/22 03:07:52;;;;;;;2.85;2.33;;;;;;;;;;4863564;29;20068;-77
2022/07/22 03:10:20;;;;;;;2.38;2.28;;;;;;;;;;4862738;29;20041;-76
2022/07/22 03:12:46;;;;;;;2.28;2.17;;;;;;;;;;4846751;29;20053;-78
2022/07/22 03:15:11;;;;;;;3.03;2.10;;;;;;;;;;4860847;29;20442;-78
2022/07/22 03:17:38;;;;;;;2.22;2.13;;;;;;;;;;4846418;29;20134;-77
2022/07/22 03:20:06;;;;;;;3.25;2.45;;;;;;;;;;4861989;29;20072;-76
2022/07/22 03:22:32;;;;;;;2.88;2.10;;;;;;;;;;4861972;29;20477;-77
2022/07/22 03:24:58;;;;;;;4.78;2.20;;;;;;;;;;4861816;29;20139;-78
2022/07/22 03:27:24;;;;;;;3.78;2.10;;;;;;;;;;4861533;29;20136;-76
2022/07/22 03:29:50;;;;;;;1.95;1.92;;;;;;;;;;4861952;29;20510;-76
2022/07/22 03:32:17;;;;;;;2.58;2.38;;;;;;;;;;4865180;29;20052;-77
2022/07/22 03:34:46;;;;;;;2.33;2.10;;;;;;;;;;4866575;29;20380;-79
2022/07/22 03:37:12;;;;;;;2.13;2.03;;;;;;;;;;4861481;29;20048;-77
2022/07/22 03:39:40;;;;;;;2.60;2.40;;;;;;;;;;4861534;29;20057;-76
2022/07/22 03:42:06;;;;;;;2.20;2.10;;;;;;;;;;4861432;29;20067;-78
2022/07/22 03:44:38;;;;;;;2.30;2.20;;;;;;;;;;4861696;29;20114;-79
2022/07/22 03:47:04;;;;;;;2.47;2.35;;;;;;;;;;4861528;29;20131;-76
2022/07/22 03:49:31;;;;;;;4.28;2.10;;;;;;;;;;4861230;29;20136;-77
2022/07/22 03:51:57;;;;;;;2.20;2.10;;;;;;;;;;4846528;29;20049;-77
2022/07/22 03:54:24;;;;;;;2.17;2.00;;;;;;;;;;4877188;29;20048;-76
2022/07/22 03:56:50;;;;;;;2.40;2.20;;;;;;;;;;4848630;29;20080;-76
2022/07/22 03:59:16;;;;;;;3.25;2.17;;;;;;;;;;4861027;29;20057;-76
2022/07/22 04:01:42;;;;;;;2.97;2.10;;;;;;;;;;4861240;29;20442;-76
2022/07/22 04:04:10;;;;;;;2.55;2.08;;;;;;;;;;4877354;29;20092;-77
2022/07/22 04:06:40;;;;;;;2.13;2.00;;;;;;;;;;4877782;29;20067;-78
2022/07/22 04:09:17;;;;;;;4.40;2.10;;;;;;;;;;4860643;29;20152;-77
2022/07/22 04:11:43;;;;;;;2.00;1.90;;;;;;;;;;4861258;29;20052;-77
2022/07/22 04:14:10;;;;;;;2.38;2.28;;;;;;;;;;4877153;29;20415;-80
2022/07/22 04:16:36;;;;;;;3.55;2.10;;;;;;;;;;4861019;29;20106;-79
2022/07/22 04:19:07;;;;;;;2.33;2.13;;;;;;;;;;4860620;29;20812;-77
2022/07/22 04:21:53;;;;;;;3.30;2.20;;;;;;;;;;4863128;29;20510;-77
2022/07/22 04:24:22;;;;;;;2.00;1.92;;;;;;;;;;4860603;29;20045;-80
2022/07/22 04:26:48;;;;;;;2.00;1.90;;;;;;;;;;4858911;29;20056;-77
2022/07/22 04:29:14;;;;;;;1.73;1.67;;;;;;;;;;4876191;29;20048;-80
2022/07/22 04:31:41;;;;;;;1.90;1.80;;;;;;;;;;4860782;29;20767;-78
2022/07/22 04:34:12;;;;;;;2.15;1.88;;;;;;;;;;4860329;29;20045;-79
2022/07/22 04:36:38;;;;;;;2.28;1.75;;;;;;;;;;4876187;29;20053;-79
2022/07/22 04:39:05;;;;;;;2.47;2.20;;;;;;;;;;4860418;29;20487;-78
2022/07/22 04:41:32;;;;;;;2.80;2.00;;;;;;;;;;4875763;29;20613;-79
2022/07/22 04:43:59;;;;;;;2.35;1.75;;;;;;;;;;4860212;29;20659;-78
2022/07/22 04:46:27;;;;;;;5.30;2.00;;;;;;;;;;4860181;29;20051;-77
2022/07/22 04:48:54;;;;;;;3.25;1.80;;;;;;;;;;4860231;29;20084;-78
2022/07/22 04:51:20;;;;;;;2.63;1.98;;;;;;;;;;4860137;29;20100;-77
2022/07/22 04:53:48;;;;;;;2.38;2.10;;;;;;;;;;4875755;29;20067;-78
2022/07/22 04:56:18;;;;;;;2.00;1.90;;;;;;;;;;4875275;29;20461;-78
2022/07/22 04:58:44;;;;;;;2.13;1.80;;;;;;;;;;4875876;29;20072;-78
2022/07/22 05:01:10;;;;;;;2.47;2.08;;;;;;;;;;4875689;29;20506;-78
2022/07/22 05:03:38;;;;;;;2.20;2.10;;;;;;;;;;4844393;29;20060;-79
2022/07/22 05:06:04;;;;;;;2.15;2.03;;;;;;;;;;4860122;29;20132;-79
2022/07/22 05:08:35;;;;;;;1.90;1.80;;;;;;;;;;4859776;29;20076;-78
2022/07/22 05:11:01;;;;;;;1.90;1.80;;;;;;;;;;4881230;29;20049;-78
2022/07/22 05:13:27;;;;;;;1.67;1.58;;;;;;;;;;4882337;29;20037;-77
2022/07/22 05:15:54;;;;;;;2.55;2.10;;;;;;;;;;4876240;29;20057;-79
2022/07/22 05:18:20;;;;;;;1.90;1.80;;;;;;;;;;4875634;29;20107;-78
2022/07/22 05:20:45;;;;;;;1.80;1.70;;;;;;;;;;4882181;29;20133;-78
2022/07/22 05:23:11;;;;;;;2.40;1.98;;;;;;;;;;4887627;29;20068;-77
2022/07/22 05:25:38;;;;;;;1.95;1.85;;;;;;;;;;4866841;29;20044;-79
2022/07/22 05:28:04;;;;;;;4.38;1.85;;;;;;;;;;4876732;29;20048;-80
2022/07/22 05:30:32;;;;;;;2.13;1.70;;;;;;;;;;4875618;29;20049;-80
2022/07/22 05:32:59;;;;;;;5.45;2.25;;;;;;;;;;4860015;29;20047;-79
2022/07/22 05:35:45;;;;;;;1.58;1.55;;;;;;;;;;4876466;29;20048;-79
2022/07/22 05:38:12;;;;;;;2.10;2.00;;;;;;;;;;4874290;29;20049;-77
2022/07/22 05:40:38;;;;;;;2.10;2.00;;;;;;;;;;4859582;29;20060;-77
2022/07/22 05:43:04;;;;;;;2.33;1.88;;;;;;;;;;4878786;29;20133;-76
2022/07/22 05:45:30;;;;;;;2.85;1.90;;;;;;;;;;4859457;29;20505;-78
2022/07/22 05:47:56;;;;;;;2.72;2.15;;;;;;;;;;4860026;29;20048;-78
2022/07/22 05:50:23;;;;;;;3.67;2.13;;;;;;;;;;4859431;29;20121;-78
2022/07/22 05:52:49;;;;;;;2.42;2.20;;;;;;;;;;4875056;29;20083;-76
2022/07/22 05:55:15;;;;;;;3.85;1.90;;;;;;;;;;4859812;29;20483;-77
2022/07/22 05:57:43;;;;;;;3.10;2.05;;;;;;;;;;4859401;29;20056;-78
2022/07/22 06:00:10;;;;;;;2.20;2.10;;;;;;;;;;4859377;29;20060;-76
2022/07/22 06:02:42;;;;;;;4.90;2.13;;;;;;;;;;4859569;29;20041;-77
2022/07/22 06:05:13;;;;;;;2.30;2.08;;;;;;;;;;4859271;29;20057;-78
2022/07/22 06:07:39;;;;;;;2.17;1.98;;;;;;;;;;4859002;29;20056;-78
2022/07/22 06:10:07;;;;;;;3.20;2.30;;;;;;;;;;4859283;29;20101;-77
2022/07/22 06:12:33;;;;;;;2.72;2.00;;;;;;;;;;4859186;29;20092;-78
2022/07/22 06:14:59;;;;;;;2.28;1.90;;;;;;;;;;4876029;29;20076;-78
2022/07/22 06:17:26;;;;;;;2.50;2.33;;;;;;;;;;4859118;29;20610;-80
2022/07/22 06:19:52;;;;;;;2.30;2.10;;;;;;;;;;4859052;29;20426;-77
2022/07/22 06:22:19;;;;;;;2.45;1.90;;;;;;;;;;4859150;29;20048;-78
2022/07/22 06:24:45;;;;;;;2.15;1.98;;;;;;;;;;4875725;29;20045;-77
2022/07/22 06:27:12;;;;;;;1.95;1.85;;;;;;;;;;4874384;29;20081;-77
2022/07/22 06:29:40;;;;;;;2.58;1.90;;;;;;;;;;4858853;29;20510;-77
2022/07/22 06:32:06;;;;;;;2.80;2.20;;;;;;;;;;4859211;29;20136;-79
2022/07/22 06:34:33;;;;;;;2.45;2.10;;;;;;;;;;4873951;29;20041;-77
2022/07/22 06:37:04;;;;;;;2.38;1.80;;;;;;;;;;4843952;29;20048;-77
2022/07/22 06:39:29;;;;;;;2.05;1.95;;;;;;;;;;4875562;29;20049;-76
2022/07/22 06:42:16;;;;;;;1.88;1.77;;;;;;;;;;4875530;29;20197;-76
2022/07/22 06:45:00;;;;;;;2.30;2.10;;;;;;;;;;4874594;29;20491;-77
2022/07/22 06:47:39;;;;;;;3.70;2.10;;;;;;;;;;4875718;29;20049;-78
2022/07/22 06:50:06;;;;;;;3.63;1.98;;;;;;;;;;4864370;29;20060;-77
2022/07/22 06:52:32;;;;;;;5.97;1.90;;;;;;;;;;4866358;29;20053;-78
2022/07/22 06:55:00;;;;;;;2.50;2.35;;;;;;;;;;4862383;29;20541;-78
2022/07/22 06:57:31;;;;;;;2.00;1.90;;;;;;;;;;4861810;29;20083;-77
2022/07/22 06:59:57;;;;;;;2.80;2.40;;;;;;;;;;4862427;29;20071;-79
2022/07/22 07:02:25;;;;;;;2.45;2.20;;;;;;;;;;4862087;29;20049;-77
2022/07/22 07:04:51;;;;;;;2.53;1.95;;;;;;;;;;4878562;29;20572;-79
2022/07/22 07:07:17;;;;;;;2.30;2.10;;;;;;;;;;4877704;29;20506;-77
2022/07/22 07:09:58;;;;;;;2.22;2.10;;;;;;;;;;4862317;29;20060;-78
2022/07/22 07:12:31;;;;;;;1.90;1.80;;;;;;;;;;4862002;29;20594;-78
2022/07/22 07:15:07;;;;;;;1.80;1.70;;;;;;;;;;4863045;29;20526;-78
2022/07/22 07:17:33;;;;;;;2.60;2.40;;;;;;;;;;4877149;29;20049;-78
2022/07/22 07:20:00;;;;;;;2.72;2.20;;;;;;;;;;4846986;29;20045;-78
2022/07/22 07:22:28;;;;;;;2.10;1.90;;;;;;;;;;4878476;29;20059;-78
2022/07/22 07:24:54;;;;;;;2.38;2.00;;;;;;;;;;4877496;29;20458;-77
2022/07/22 07:27:20;;;;;;;4.18;2.45;;;;;;;;;;4878782;29;20071;-79
2022/07/22 07:29:49;;;;;;;4.13;2.30;;;;;;;;;;4862023;29;20037;-77
2022/07/22 07:32:15;;;;;;;3.42;2.30;;;;;;;;;;4862271;29;20097;-79
2022/07/22 07:34:41;;;;;;;2.03;1.65;;;;;;;;;;4890019;29;20037;-79
2022/07/22 07:37:07;;;;;;;3.25;2.10;;;;;;;;;;4851886;29;20049;-79
2022/07/22 07:39:33;;;;;;;3.17;2.28;;;;;;;;;;4861546;29;20121;-79
2022/07/22 07:42:00;;;;;;;3.67;2.30;;;;;;;;;;4861735;29;20049;-79
2022/07/22 07:44:26;;;;;;;2.30;2.10;;;;;;;;;;4861057;29;20458;-80
2022/07/22 07:46:52;;;;;;;4.53;2.15;;;;;;;;;;4877040;29;20047;-78
2022/07/22 07:49:18;;;;;;;2.17;2.08;;;;;;;;;;4861385;29;20048;-78
2022/07/22 07:51:44;;;;;;;2.83;2.45;;;;;;;;;;4876860;29;20053;-77
2022/07/22 07:54:10;;;;;;;2.30;2.10;;;;;;;;;;4861371;29;20052;-77
2022/07/22 07:56:37;;;;;;;4.03;2.20;;;;;;;;;;4861495;29;20609;-79
2022/07/22 07:59:03;;;;;;;2.60;2.40;;;;;;;;;;4861380;29;20121;-79
2022/07/22 08:01:29;;;;;;;1.90;1.80;;;;;;;;;;4860816;29;20115;-77
2022/07/22 08:03:55;;;;;;;2.65;2.20;;;;;;;;;;4861175;29;20468;-78
2022/07/22 08:06:21;;;;;;;3.30;2.28;;;;;;;;;;4877011;29;20049;-78
2022/07/22 08:08:47;;;;;;;2.53;1.80;;;;;;;;;;4878042;29;20056;-79
2022/07/22 08:11:18;;;;;;;2.80;2.15;;;;;;;;;;4861354;29;20052;-77
2022/07/22 08:13:57;;;;;;;1.95;1.85;;;;;;;;;;4877097;29;20056;-80
2022/07/22 08:16:38;;;;;;;2.20;1.70;;;;;;;;;;4863973;29;20052;-78
2022/07/22 08:19:04;;;;;;;4.10;2.00;;;;;;;;;;4871951;29;20060;-78
2022/07/22 08:21:31;;;;;;;2.28;2.08;;;;;;;;;;4884497;29;20053;-80
2022/07/22 08:23:58;;;;;;;2.40;1.90;;;;;;;;;;4878272;29;20128;-79
2022/07/22 08:26:24;;;;;;;2.13;1.98;;;;;;;;;;4861199;29;20068;-77
2022/07/22 08:28:50;;;;;;;2.05;1.90;;;;;;;;;;4881351;29;20069;-79
2022/07/22 08:31:16;;;;;;;2.28;2.10;;;;;;;;;;4883207;29;20101;-81
2022/07/22 08:33:43;;;;;;;4.93;2.20;;;;;;;;;;4861336;29;20060;-79
2022/07/22 08:36:09;;;;;;;2.50;2.10;;;;;;;;;;4877628;29;20040;-80
2022/07/22 08:38:35;;;;;;;2.22;2.05;;;;;;;;;;4875855;29;20092;-80
2022/07/22 08:41:01;;;;;;;2.35;2.00;;;;;;;;;;4845455;29;20076;-78
2022/07/22 08:43:27;;;;;;;2.45;2.10;;;;;;;;;;4860534;29;20428;-79
2022/07/22 08:45:53;;;;;;;2.30;2.00;;;;;;;;;;4845300;29;20104;-78
2022/07/22 08:48:19;;;;;;;2.13;2.00;;;;;;;;;;4860361;29;20514;-79
2022/07/22 08:51:20;;;;;;;6.03;2.30;;;;;;;;;;4844629;29;20139;-78
2022/07/22 08:54:00;;;;;;;2.03;1.92;;;;;;;;;;4860291;29;20048;-78
2022/07/22 08:56:26;;;;;;;3.95;2.10;;;;;;;;;;4860038;29;20545;-79
2022/07/22 08:58:52;;;;;;;2.38;2.15;;;;;;;;;;4875475;29;20057;-79
2022/07/22 09:01:18;;;;;;;2.42;2.00;;;;;;;;;;4876892;29;20048;-80
2022/07/22 09:03:50;;;;;;;7.13;2.00;;;;;;;;;;4843982;29;20194;-80
2022/07/22 09:06:17;;;;;;;2.20;2.10;;;;;;;;;;4859967;29;20053;-80
2022/07/22 09:08:50;;;;;;;2.83;2.00;;;;;;;;;;4860508;29;20040;-80
2022/07/22 09:11:36;;;;;;;2.55;2.20;;;;;;;;;;4876231;29;20104;-80
2022/07/22 09:14:20;;;;;;;2.25;2.05;;;;;;;;;;4877115;29;20053;-79
2022/07/22 09:17:22;;;;;;;5.38;1.95;;;;;;;;;;4860468;29;20514;-79
2022/07/22 09:20:17;;;;;;;2.20;2.00;;;;;;;;;;4876441;29;20057;-78
2022/07/22 09:23:13;;;;;;;2.22;2.03;;;;;;;;;;4876657;29;20056;-79
2022/07/22 09:25:41;;;;;;;2.00;1.90;;;;;;;;;;4888405;29;20052;-80
2022/07/22 09:28:26;;;;;;;1.88;1.77;;;;;;;;;;4877402;29;20433;-79
2022/07/22 09:31:22;;;;;;;3.25;2.00;;;;;;;;;;4875719;29;20045;-79
2022/07/22 09:33:49;;;;;;;1.95;1.80;;;;;;;;;;4844280;29;20048;-76
2022/07/22 09:36:18;;;;;;;2.13;1.95;;;;;;;;;;4859770;29;20076;-78
2022/07/22 09:38:44;;;;;;;2.25;2.05;;;;;;;;;;4859584;29;20534;-79
2022/07/22 09:41:10;;;;;;;2.40;2.20;;;;;;;;;;4876404;29;20056;-79
2022/07/22 09:43:36;;;;;;;2.42;2.05;;;;;;;;;;4859331;29;20105;-80
2022/07/22 09:46:04;;;;;;;2.75;2.00;;;;;;;;;;4860110;29;20142;-78
2022/07/22 09:49:05;;;;;;;3.38;2.00;;;;;;;;;;4819099;29;20494;-79
2022/07/22 09:51:54;;;;;;;1.90;1.80;;;;;;;;;;4845218;29;20076;-78
2022/07/22 09:54:30;;;;;;;1.73;1.63;;;;;;;;;;4876333;29;20045;-78
2022/07/22 09:56:56;;;;;;;3.72;2.00;;;;;;;;;;4860071;29;20049;-78
2022/07/22 09:59:22;;;;;;;2.92;2.17;;;;;;;;;;4875984;29;20522;-79
2022/07/22 10:02:12;;;;;;;2.33;2.10;;;;;;;;;;4833527;29;20411;-79
2022/07/22 10:04:38;;;;;;;1.98;1.80;;;;;;;;;;4859183;29;20125;-78
2022/07/22 10:07:06;;;;;;;2.35;1.88;;;;;;;;;;4875155;29;20045;-79
2022/07/22 10:09:36;;;;;;;3.03;2.00;;;;;;;;;;4865121;29;20114;-78
2022/07/22 10:12:03;;;;;;;1.95;1.63;;;;;;;;;;4876261;29;20037;-79
2022/07/22 10:14:29;;;;;;;1.70;1.60;;;;;;;;;;4874867;29;20053;-77
2022/07/22 10:16:57;;;;;;;3.30;1.70;;;;;;;;;;4859396;29;20052;-79
2022/07/22 10:19:23;;;;;;;1.80;1.67;;;;;;;;;;4875929;29;20056;-79
2022/07/22 10:21:50;;;;;;;2.80;1.75;;;;;;;;;;4875955;29;20540;-78
2022/07/22 10:24:19;;;;;;;1.70;1.60;;;;;;;;;;4861991;29;20132;-79
2022/07/22 10:26:51;;;;;;;5.70;1.73;;;;;;;;;;4863929;29;20049;-82
2022/07/22 10:29:28;;;;;;;4.15;1.85;;;;;;;;;;4879669;29;20060;-75
2022/07/22 10:32:29;;;;;;;1.45;1.42;;;;;;;;;;4881355;29;20045;-77
2022/07/22 10:34:58;;;;;;;1.85;1.67;;;;;;;;;;4803421;29;20499;-77
2022/07/22 10:37:44;;;;;;;2.08;1.80;;;;;;;;;;4865393;29;20068;-81
2022/07/22 10:40:11;;;;;;;1.98;1.80;;;;;;;;;;4883330;29;20049;-80
2022/07/22 10:42:55;;;;;;;2.10;1.95;;;;;;;;;;4879503;29;20426;-79
2022/07/22 10:45:22;;;;;;;1.98;1.60;;;;;;;;;;4879527;29;20041;-79
2022/07/22 10:47:51;;;;;;;9.05;2.65;;;;;;;;;;4847535;29;20081;-77
2022/07/22 10:50:40;;;;;;;2.75;1.70;;;;;;;;;;4862753;29;20040;-78
2022/07/22 10:53:08;;;;;;;1.80;1.70;;;;;;;;;;4879341;29;20056;-78
2022/07/22 10:55:34;;;;;;;1.90;1.70;;;;;;;;;;4878764;29;20045;-78
2022/07/22 10:58:00;;;;;;;2.20;1.77;;;;;;;;;;4879188;29;20051;-77
2022/07/22 11:00:26;;;;;;;3.33;1.80;;;;;;;;;;4879226;29;20437;-80
2022/07/22 11:02:52;;;;;;;3.17;1.90;;;;;;;;;;4881416;29;20101;-84
2022/07/22 11:05:25;;;;;;;1.77;1.67;;;;;;;;;;4884637;29;20548;-78
2022/07/22 11:07:51;;;;;;;3.58;2.13;;;;;;;;;;4883888;29;20045;-79
2022/07/22 11:10:18;;;;;;;2.20;2.00;;;;;;;;;;4889674;29;20075;-79
2022/07/22 11:12:44;;;;;;;1.75;1.63;;;;;;;;;;4889107;29;20045;-77
2022/07/22 11:15:10;;;;;;;9.50;2.10;;;;;;;;;;4894513;29;20056;-78
2022/07/22 11:17:36;;;;;;;4.18;1.73;;;;;;;;;;4882079;29;20052;-79
2022/07/22 11:20:12;;;;;;;1.40;1.40;;;;;;;;;;4878249;29;20149;-79
2022/07/22 11:22:38;;;;;;;3.92;1.90;;;;;;;;;;4878694;29;20045;-80
2022/07/22 11:25:05;;;;;;;1.90;1.80;;;;;;;;;;4878597;29;20047;-78
2022/07/22 11:27:31;;;;;;;3.17;2.00;;;;;;;;;;4878626;29;20045;-78
2022/07/22 11:29:57;;;;;;;1.70;1.60;;;;;;;;;;4878333;29;20041;-78
2022/07/22 11:32:24;;;;;;;2.00;1.80;;;;;;;;;;4878580;29;20136;-78
2022/07/22 11:34:50;;;;;;;3.35;1.80;;;;;;;;;;4860908;29;20045;-78
2022/07/22 11:37:16;;;;;;;2.15;1.92;;;;;;;;;;4878334;29;20109;-78
2022/07/22 11:39:42;;;;;;;2.13;1.92;;;;;;;;;;4876872;29;20052;-79
2022/07/22 11:42:08;;;;;;;2.72;1.92;;;;;;;;;;4861537;29;20407;-80
2022/07/22 11:44:35;;;;;;;2.20;2.00;;;;;;;;;;4878461;29;20097;-78
2022/07/22 11:47:01;;;;;;;4.07;1.90;;;;;;;;;;4882349;29;20086;-78
2022/07/22 11:49:28;;;;;;;2.15;1.70;;;;;;;;;;4867897;29;20136;-79
2022/07/22 11:51:54;;;;;;;3.00;2.03;;;;;;;;;;4861541;29;20094;-78
2022/07/22 11:54:19;;;;;;;3.88;1.70;;;;;;;;;;4878120;29;20585;-79
2022/07/22 11:56:45;;;;;;;3.92;1.70;;;;;;;;;;4877873;29;20592;-78
2022/07/22 11:59:12;;;;;;;2.30;1.65;;;;;;;;;;4861049;29;20120;-78
2022/07/22 12:01:38;;;;;;;2.38;2.00;;;;;;;;;;4877775;29;20059;-79
2022/07/22 12:04:14;;;;;;;3.83;2.72;;;;;;;;;;4877503;29;20057;-80
2022/07/22 12:06:40;;;;;;;2.22;1.88;;;;;;;;;;4860940;29;20051;-79
2022/07/22 12:09:10;;;;;;;2.63;1.73;;;;;;;;;;4877593;29;20537;-78
2022/07/22 12:11:36;;;;;;;1.90;1.80;;;;;;;;;;4877651;29;20245;-78
2022/07/22 12:14:07;;;;;;;3.45;1.73;;;;;;;;;;4860979;29;20037;-77
2022/07/22 12:16:33;;;;;;;3.65;1.90;;;;;;;;;;4845557;29;20044;-78
2022/07/22 12:18:59;;;;;;;2.15;2.05;;;;;;;;;;4860512;29;20057;-78
2022/07/22 12:21:26;;;;;;;3.38;1.95;;;;;;;;;;4877534;29;20510;-79
2022/07/22 12:23:53;;;;;;;2.10;1.92;;;;;;;;;;4877399;29;20098;-78
2022/07/22 12:26:19;;;;;;;2.60;1.83;;;;;;;;;;4877453;29;20053;-78
2022/07/22 12:28:45;;;;;;;5.22;2.15;;;;;;;;;;4860615;29;20068;-78
2022/07/22 12:31:11;;;;;;;2.80;1.90;;;;;;;;;;4877357;29;20132;-79
2022/07/22 12:33:37;;;;;;;2.35;1.92;;;;;;;;;;4877394;29;20147;-77
2022/07/22 12:36:03;;;;;;;2.10;2.00;;;;;;;;;;4845038;29;20585;-77
2022/07/22 12:38:29;;;;;;;2.53;2.10;;;;;;;;;;4875847;29;20056;-79
2022/07/22 12:40:55;;;;;;;3.17;2.08;;;;;;;;;;4860364;29;20068;-79
2022/07/22 12:43:25;;;;;;;2.70;2.08;;;;;;;;;;4860912;29;20166;-81
2022/07/22 12:45:51;;;;;;;3.45;2.13;;;;;;;;;;4877836;29;20222;-79
2022/07/22 12:48:17;;;;;;;2.17;1.92;;;;;;;;;;4877570;29;20221;-79
2022/07/22 12:51:04;;;;;;;3.72;1.88;;;;;;;;;;4876964;29;20056;-79
2022/07/22 12:53:32;;;;;;;4.57;2.05;;;;;;;;;;4875649;29;20533;-78
2022/07/22 12:56:00;;;;;;;1.92;1.63;;;;;;;;;;4876826;29;20063;-77
2022/07/22 12:58:27;;;;;;;2.58;1.75;;;;;;;;;;4875930;29;20045;-78
2022/07/22 13:00:53;;;;;;;2.65;1.63;;;;;;;;;;4876735;29;20045;-78
2022/07/22 13:03:19;;;;;;;2.08;1.98;;;;;;;;;;4862396;29;20097;-78
2022/07/22 13:05:46;;;;;;;2.45;1.73;;;;;;;;;;4890550;29;20442;-80
2022/07/22 13:08:12;;;;;;;3.00;1.70;;;;;;;;;;4877388;29;20113;-79
2022/07/22 13:10:38;;;;;;;8.40;2.20;;;;;;;;;;4877266;29;20067;-78
2022/07/22 13:13:04;;;;;;;2.03;1.92;;;;;;;;;;4877064;29;20049;-81
2022/07/22 13:15:30;;;;;;;2.38;2.15;;;;;;;;;;4876649;29;20041;-80
2022/07/22 13:17:56;;;;;;;3.95;1.98;;;;;;;;;;4844913;29;20045;-79
2022/07/22 13:20:22;;;;;;;3.38;2.13;;;;;;;;;;4876830;29;20057;-79
2022/07/22 13:22:48;;;;;;;2.00;1.90;;;;;;;;;;4876620;29;20073;-78
2022/07/22 13:25:14;;;;;;;1.85;1.70;;;;;;;;;;4875815;29;20606;-77
2022/07/22 13:27:40;;;;;;;1.98;1.88;;;;;;;;;;4881141;29;20128;-78
2022/07/22 13:30:06;;;;;;;2.72;2.30;;;;;;;;;;4859905;29;20566;-78
2022/07/22 13:32:32;;;;;;;2.75;1.73;;;;;;;;;;4876576;29;20101;-78
2022/07/22 13:34:58;;;;;;;2.40;2.20;;;;;;;;;;4859055;29;20049;-79
2022/07/22 13:37:24;;;;;;;2.95;2.08;;;;;;;;;;4876788;29;20590;-79
2022/07/22 13:39:50;;;;;;;2.22;1.90;;;;;;;;;;4859772;29;20154;-78
2022/07/22 13:42:18;;;;;;;2.22;1.88;;;;;;;;;;4859752;29;20071;-79
2022/07/22 13:44:45;;;;;;;3.17;1.88;;;;;;;;;;4876346;29;20125;-79
2022/07/22 13:47:10;;;;;;;3.35;2.00;;;;;;;;;;4876388;29;20052;-78
2022/07/22 13:49:36;;;;;;;2.65;2.10;;;;;;;;;;4844231;29;20049;-79
2022/07/22 13:52:03;;;;;;;2.10;2.00;;;;;;;;;;4876464;29;20045;-80
2022/07/22 13:54:28;;;;;;;3.47;2.00;;;;;;;;;;4876288;29;20084;-79
2022/07/22 13:56:55;;;;;;;1.98;1.85;;;;;;;;;;4876116;29;20140;-78
2022/07/22 13:59:22;;;;;;;4.22;1.80;;;;;;;;;;4879280;29;20140;-78
2022/07/22 14:01:48;;;;;;;1.80;1.70;;;;;;;;;;4871235;29;20041;-79
2022/07/22 14:04:14;;;;;;;3.08;2.00;;;;;;;;;;4888489;29;20060;-79
2022/07/22 14:06:40;;;;;;;3.47;2.03;;;;;;;;;;4881484;29;20100;-78
2022/07/22 14:09:05;;;;;;;3.22;1.95;;;;;;;;;;4863223;29;20134;-79
2022/07/22 14:11:31;;;;;;;2.00;1.90;;;;;;;;;;4880122;29;20133;-78
2022/07/22 14:13:57;;;;;;;2.03;1.90;;;;;;;;;;4879718;29;20620;-78
2022/07/22 14:16:35;;;;;;;2.83;2.08;;;;;;;;;;4847364;29;20047;-77
2022/07/22 14:19:01;;;;;;;4.93;2.20;;;;;;;;;;4879325;29;20057;-79
2022/07/22 14:21:27;;;;;;;3.67;2.08;;;;;;;;;;4879051;29;20053;-78
2022/07/22 14:23:53;;;;;;;3.22;2.10;;;;;;;;;;4878944;29;20048;-79
2022/07/22 14:26:19;;;;;;;2.03;1.90;;;;;;;;;;4879164;29;20060;-79
2022/07/22 14:28:45;;;;;;;2.00;1.90;;;;;;;;;;4879425;29;20041;-79
2022/07/22 14:31:11;;;;;;;2.10;2.00;;;;;;;;;;4879317;29;20445;-78
2022/07/22 14:33:36;;;;;;;2.25;1.95;;;;;;;;;;4862510;29;20190;-80
2022/07/22 14:36:03;;;;;;;5.05;2.17;;;;;;;;;;4878884;29;20053;-78
2022/07/22 14:38:28;;;;;;;2.17;1.95;;;;;;;;;;4879093;29;20080;-78
2022/07/22 14:40:54;;;;;;;2.78;2.22;;;;;;;;;;4861869;29;20602;-78
2022/07/22 14:43:21;;;;;;;4.72;2.53;;;;;;;;;;4879055;29;20045;-79
2022/07/22 14:45:47;;;;;;;2.42;2.22;;;;;;;;;;4878890;29;20105;-80
2022/07/22 14:48:13;;;;;;;2.40;2.17;;;;;;;;;;4864403;29;20044;-81
2022/07/22 14:50:39;;;;;;;2.58;2.10;;;;;;;;;;4877615;29;20124;-79